Time;durP1;ratioP1;P1;durP2;ratioP2;P2;SDS_P1;SDS_P2;PMS_P1;PMS_P2;Temp;Humidity;BMP_temperature;BMP_pressure;BME280_temperature;BME280_humidity;BME280_pressure;Samples;Min_cycle;Max_cycle;Signal;HPM_P1;HPM_P2
2022/05/04 00:02:42;;;;;;;37.10;22.00;;;;;;;;;;6238469;28;19956;-56
2022/05/04 00:05:43;;;;;;;37.55;23.58;;;;;;;;;;6239294;28;20084;-63
2022/05/04 00:08:43;;;;;;;44.72;26.83;;;;;;;;;;6238478;28;20084;-57
2022/05/04 00:11:44;;;;;;;35.65;21.10;;;;;;;;;;6239655;28;20394;-57
2022/05/04 00:14:45;;;;;;;37.40;21.35;;;;;;;;;;6240127;28;20771;-60
2022/05/04 00:17:45;;;;;;;40.08;21.40;;;;;;;;;;6238524;28;20472;-58
2022/05/04 00:20:46;;;;;;;36.72;19.85;;;;;;;;;;6239155;28;20073;-59
2022/05/04 00:23:47;;;;;;;40.72;22.67;;;;;;;;;;6236853;28;20049;-58
2022/05/04 00:26:47;;;;;;;34.33;20.02;;;;;;;;;;6236036;28;20058;-59
2022/05/04 00:29:48;;;;;;;35.83;21.17;;;;;;;;;;6237022;28;20107;-58
2022/05/04 00:32:48;;;;;;;35.78;21.30;;;;;;;;;;6237722;28;20106;-59
2022/05/04 00:35:49;;;;;;;46.20;25.95;;;;;;;;;;6238087;28;20104;-59
2022/05/04 00:38:49;;;;;;;51.85;28.13;;;;;;;;;;6237672;28;20041;-59
2022/05/04 00:41:50;;;;;;;45.55;24.40;;;;;;;;;;6237329;28;20108;-58
2022/05/04 00:44:51;;;;;;;42.28;24.58;;;;;;;;;;6234099;28;20059;-55
2022/05/04 00:47:51;;;;;;;38.58;23.10;;;;;;;;;;6237674;28;20272;-57
2022/05/04 00:50:53;;;;;;;39.13;21.85;;;;;;;;;;6237550;28;20136;-58
2022/05/04 00:53:54;;;;;;;30.25;17.90;;;;;;;;;;6238411;28;20085;-58
2022/05/04 00:56:55;;;;;;;33.92;19.48;;;;;;;;;;6237363;28;20045;-57
2022/05/04 00:59:56;;;;;;;38.22;25.08;;;;;;;;;;6234950;28;20362;-57
2022/05/04 01:02:57;;;;;;;36.63;22.23;;;;;;;;;;6237836;28;20076;-59
2022/05/04 01:05:57;;;;;;;37.42;23.13;;;;;;;;;;6236602;28;20053;-57
2022/05/04 01:08:58;;;;;;;33.53;21.30;;;;;;;;;;6237112;28;20033;-58
2022/05/04 01:11:59;;;;;;;34.35;20.55;;;;;;;;;;6238503;28;20390;-58
2022/05/04 01:15:00;;;;;;;34.20;21.15;;;;;;;;;;6237578;28;20064;-61
2022/05/04 01:18:01;;;;;;;45.07;21.93;;;;;;;;;;6238024;28;20159;-57
2022/05/04 01:21:03;;;;;;;33.85;20.92;;;;;;;;;;6238296;28;20303;-56
2022/05/04 01:24:04;;;;;;;32.80;20.13;;;;;;;;;;6236114;28;20057;-58
2022/05/04 01:27:11;;;;;;;33.03;19.25;;;;;;;;;;6234797;28;20053;-58
2022/05/04 01:30:12;;;;;;;33.15;18.48;;;;;;;;;;6234692;28;20131;-57
2022/05/04 01:33:13;;;;;;;31.40;18.10;;;;;;;;;;6237595;28;20049;-56
2022/05/04 01:36:14;;;;;;;35.28;19.05;;;;;;;;;;6238719;28;20053;-60
2022/05/04 01:39:14;;;;;;;35.45;18.38;;;;;;;;;;6238547;28;20464;-63
2022/05/04 01:42:16;;;;;;;33.78;19.88;;;;;;;;;;6235916;28;20056;-57
2022/05/04 01:45:17;;;;;;;32.42;19.10;;;;;;;;;;6235880;28;20073;-58
2022/05/04 01:48:18;;;;;;;33.88;18.98;;;;;;;;;;6235320;28;20136;-59
2022/05/04 01:51:19;;;;;;;34.15;18.63;;;;;;;;;;6236747;28;20084;-56
2022/05/04 01:54:20;;;;;;;29.48;17.65;;;;;;;;;;6236508;28;20485;-58
2022/05/04 01:57:20;;;;;;;29.38;17.10;;;;;;;;;;6234355;28;20140;-62
2022/05/04 02:00:21;;;;;;;31.05;16.65;;;;;;;;;;6237487;28;20053;-56
2022/05/04 02:03:21;;;;;;;30.17;17.48;;;;;;;;;;6236906;28;20053;-56
2022/05/04 02:06:22;;;;;;;26.52;17.85;;;;;;;;;;6236523;28;20493;-57
2022/05/04 02:09:23;;;;;;;31.08;17.75;;;;;;;;;;6237323;28;20206;-57
2022/05/04 02:12:26;;;;;;;30.20;17.83;;;;;;;;;;6235318;28;20057;-56
2022/05/04 02:15:27;;;;;;;29.73;18.38;;;;;;;;;;6233944;28;20045;-60
2022/05/04 02:18:27;;;;;;;28.92;18.48;;;;;;;;;;6236178;28;20049;-56
2022/05/04 02:21:28;;;;;;;34.33;20.25;;;;;;;;;;6235636;28;20072;-57
2022/05/04 02:24:29;;;;;;;33.38;18.95;;;;;;;;;;6237272;28;20046;-58
2022/05/04 02:27:29;;;;;;;33.40;18.60;;;;;;;;;;6237572;28;20051;-58
2022/05/04 02:30:30;;;;;;;32.20;18.58;;;;;;;;;;6237321;28;20096;-58
2022/05/04 02:33:30;;;;;;;31.85;18.90;;;;;;;;;;6237897;28;20651;-58
2022/05/04 02:39:50;;;;;;;36.10;18.83;;;;;;;;;;6236230;28;20037;-58
2022/05/04 02:42:50;;;;;;;33.70;18.58;;;;;;;;;;6236525;28;20052;-56
2022/05/04 02:45:51;;;;;;;38.55;18.98;;;;;;;;;;6237608;28;20140;-58
2022/05/04 02:48:52;;;;;;;34.75;20.88;;;;;;;;;;6238126;28;20049;-58
2022/05/04 02:51:52;;;;;;;32.97;20.30;;;;;;;;;;6234739;28;20049;-57
2022/05/04 02:54:53;;;;;;;36.53;21.67;;;;;;;;;;6236053;28;20187;-58
2022/05/04 02:57:54;;;;;;;33.47;19.77;;;;;;;;;;6233637;28;20045;-57
2022/05/04 03:00:54;;;;;;;36.17;20.15;;;;;;;;;;6232823;28;20053;-58
2022/05/04 03:03:56;;;;;;;35.47;19.63;;;;;;;;;;6235907;28;20133;-58
2022/05/04 03:06:56;;;;;;;36.77;19.73;;;;;;;;;;6234508;28;20144;-58
2022/05/04 03:09:58;;;;;;;34.35;18.55;;;;;;;;;;6235541;28;20042;-57
2022/05/04 03:12:59;;;;;;;34.78;18.13;;;;;;;;;;6233933;28;20079;-56
2022/05/04 03:15:59;;;;;;;30.02;17.13;;;;;;;;;;6238048;28;20046;-58
2022/05/04 03:19:02;;;;;;;28.88;16.83;;;;;;;;;;6239768;28;20416;-58
2022/05/04 03:22:02;;;;;;;31.17;17.58;;;;;;;;;;6240450;28;20099;-57
2022/05/04 03:25:08;;;;;;;32.42;18.92;;;;;;;;;;6237939;28;20053;-58
2022/05/04 03:28:08;;;;;;;32.47;18.92;;;;;;;;;;6242124;28;20081;-58
2022/05/04 03:31:09;;;;;;;36.47;18.40;;;;;;;;;;6241702;28;20045;-57
2022/05/04 03:34:09;;;;;;;33.25;19.67;;;;;;;;;;6239984;28;20088;-58
2022/05/04 03:37:10;;;;;;;32.75;20.77;;;;;;;;;;6241110;28;20064;-58
2022/05/04 03:40:13;;;;;;;34.13;21.05;;;;;;;;;;6238397;28;20604;-55
2022/05/04 03:43:13;;;;;;;30.80;19.52;;;;;;;;;;6238231;28;20595;-58
2022/05/04 03:46:15;;;;;;;28.27;18.48;;;;;;;;;;6237315;28;20076;-58
2022/05/04 03:49:17;;;;;;;35.55;19.05;;;;;;;;;;6237412;28;20049;-57
2022/05/04 03:52:18;;;;;;;;;;;;;;;;;;6236693;28;20474;-58
2022/05/04 03:55:18;;;;;;;35.80;18.73;;;;;;;;;;6238275;28;19924;-57
2022/05/04 03:58:19;;;;;;;36.92;19.55;;;;;;;;;;6240172;28;20556;-57
2022/05/04 04:01:20;;;;;;;31.00;19.33;;;;;;;;;;6237921;28;20045;-57
2022/05/04 04:04:20;;;;;;;28.10;18.45;;;;;;;;;;6238658;28;20406;-59
2022/05/04 04:07:21;;;;;;;33.88;19.15;;;;;;;;;;6237924;28;20081;-61
2022/05/04 04:10:22;;;;;;;31.25;17.95;;;;;;;;;;6239977;28;20118;-57
2022/05/04 04:13:23;;;;;;;34.67;19.13;;;;;;;;;;6240825;28;20053;-58
2022/05/04 04:16:23;;;;;;;33.22;18.13;;;;;;;;;;6240309;28;20146;-59
2022/05/04 04:19:24;;;;;;;30.13;18.10;;;;;;;;;;6241320;28;20049;-59
2022/05/04 04:22:25;;;;;;;32.00;16.90;;;;;;;;;;6242209;28;20073;-59
2022/05/04 04:25:26;;;;;;;27.02;17.92;;;;;;;;;;6242349;28;20073;-63
2022/05/04 04:28:27;;;;;;;30.60;17.52;;;;;;;;;;6241453;28;20041;-60
2022/05/04 04:31:28;;;;;;;30.50;18.05;;;;;;;;;;6224080;28;20132;-62
2022/05/04 04:34:28;;;;;;;33.00;20.20;;;;;;;;;;6241013;28;20084;-59
2022/05/04 04:37:29;;;;;;;33.30;18.10;;;;;;;;;;6241845;28;20100;-60
2022/05/04 04:40:30;;;;;;;31.35;18.85;;;;;;;;;;6241839;28;20091;-60
2022/05/04 04:43:30;;;;;;;28.55;18.20;;;;;;;;;;6241882;28;20056;-59
2022/05/04 04:46:31;;;;;;;41.17;19.00;;;;;;;;;;6241701;28;20053;-62
2022/05/04 04:49:31;;;;;;;31.90;19.15;;;;;;;;;;6239669;28;20480;-58
2022/05/04 04:52:32;;;;;;;41.13;26.27;;;;;;;;;;6238771;28;20155;-58
2022/05/04 04:55:33;;;;;;;30.85;18.75;;;;;;;;;;6237505;28;20041;-57
2022/05/04 04:58:33;;;;;;;31.02;17.85;;;;;;;;;;6236947;28;20038;-58
2022/05/04 05:01:34;;;;;;;30.92;16.92;;;;;;;;;;6237273;28;20049;-58
2022/05/04 05:04:35;;;;;;;31.55;15.27;;;;;;;;;;6237381;28;20045;-59
2022/05/04 05:07:36;;;;;;;24.95;14.25;;;;;;;;;;6237642;28;20054;-58
2022/05/04 05:10:37;;;;;;;25.50;14.75;;;;;;;;;;6236473;28;20044;-56
2022/05/04 05:16:06;;;;;;;23.33;13.47;;;;;;;;;;6238459;28;20057;-56
2022/05/04 05:16:58;;;;;;;27.52;14.52;;;;;;;;;;6237357;28;20080;-58
2022/05/04 05:19:59;;;;;;;20.65;12.68;;;;;;;;;;6238194;28;20079;-58
2022/05/04 05:23:01;;;;;;;25.40;14.23;;;;;;;;;;6236696;28;20080;-59
2022/05/04 05:26:02;;;;;;;22.48;12.93;;;;;;;;;;6237540;28;20938;-58
2022/05/04 05:29:02;;;;;;;23.73;13.70;;;;;;;;;;6236782;28;20049;-58
2022/05/04 05:32:03;;;;;;;25.10;14.27;;;;;;;;;;6236603;28;20512;-64
2022/05/04 05:35:04;;;;;;;25.23;15.27;;;;;;;;;;6236981;28;20186;-58
2022/05/04 05:38:05;;;;;;;23.70;15.27;;;;;;;;;;6235350;28;20416;-58
2022/05/04 05:41:06;;;;;;;24.65;14.18;;;;;;;;;;6234285;28;20140;-58
2022/05/04 05:44:07;;;;;;;25.90;14.07;;;;;;;;;;6235967;28;20116;-58
2022/05/04 05:47:07;;;;;;;23.30;14.40;;;;;;;;;;6235952;28;20049;-59
2022/05/04 05:50:09;;;;;;;22.10;13.05;;;;;;;;;;6234013;28;20073;-57
2022/05/04 05:53:09;;;;;;;26.00;13.50;;;;;;;;;;6233639;28;20470;-58
2022/05/04 05:56:10;;;;;;;25.30;14.57;;;;;;;;;;6236023;28;20045;-57
2022/05/04 05:59:12;;;;;;;24.17;14.00;;;;;;;;;;6236505;28;20096;-61
2022/05/04 06:02:12;;;;;;;22.83;14.20;;;;;;;;;;6235394;28;20069;-58
2022/05/04 06:05:13;;;;;;;23.42;13.73;;;;;;;;;;6236893;28;20053;-60
2022/05/04 06:08:14;;;;;;;22.83;13.70;;;;;;;;;;6237060;28;20061;-61
2022/05/04 06:11:14;;;;;;;25.02;14.50;;;;;;;;;;6236683;28;20055;-59
2022/05/04 06:14:15;;;;;;;26.48;15.95;;;;;;;;;;6237725;28;20049;-59
2022/05/04 06:17:16;;;;;;;32.42;19.02;;;;;;;;;;6236422;28;20149;-59
2022/05/04 06:20:17;;;;;;;27.08;14.10;;;;;;;;;;6235538;28;20129;-60
2022/05/04 06:23:17;;;;;;;27.73;14.60;;;;;;;;;;6235090;28;20085;-59
2022/05/04 06:26:20;;;;;;;30.02;15.77;;;;;;;;;;6234802;28;20060;-62
2022/05/04 06:29:21;;;;;;;22.60;12.45;;;;;;;;;;6237765;28;20216;-59
2022/05/04 06:35:41;;;;;;;20.70;13.15;;;;;;;;;;6237488;28;20073;-59
2022/05/04 06:38:41;;;;;;;17.88;12.52;;;;;;;;;;6234602;28;20124;-62
2022/05/04 06:41:42;;;;;;;18.75;11.68;;;;;;;;;;6235782;28;20390;-59
2022/05/04 06:44:43;;;;;;;19.17;11.82;;;;;;;;;;6236375;28;20045;-60
2022/05/04 06:47:43;;;;;;;19.15;12.40;;;;;;;;;;6235531;28;20140;-59
2022/05/04 06:50:44;;;;;;;19.52;11.60;;;;;;;;;;6237661;28;20112;-59
2022/05/04 06:53:45;;;;;;;20.75;12.18;;;;;;;;;;6238541;28;20045;-59
2022/05/04 06:56:45;;;;;;;19.13;12.18;;;;;;;;;;6239355;28;20061;-59
2022/05/04 06:59:46;;;;;;;20.65;13.23;;;;;;;;;;6240855;28;20167;-57
2022/05/04 07:02:47;;;;;;;20.95;12.82;;;;;;;;;;6239609;28;20485;-58
2022/05/04 07:05:48;;;;;;;22.73;11.70;;;;;;;;;;6241327;28;20046;-58
2022/05/04 07:08:49;;;;;;;19.35;11.95;;;;;;;;;;6240906;28;20497;-58
2022/05/04 07:11:49;;;;;;;19.33;12.15;;;;;;;;;;6239719;28;20128;-58
2022/05/04 07:14:53;;;;;;;21.60;11.98;;;;;;;;;;6241305;28;20045;-59
2022/05/04 07:17:53;;;;;;;19.13;10.93;;;;;;;;;;6239678;28;20049;-59
2022/05/04 07:20:54;;;;;;;28.10;11.50;;;;;;;;;;6240182;28;20127;-58
2022/05/04 07:23:55;;;;;;;17.48;11.00;;;;;;;;;;6241996;28;20519;-58
2022/05/04 07:26:56;;;;;;;17.63;10.75;;;;;;;;;;6241738;28;20092;-58
2022/05/04 07:29:56;;;;;;;16.75;10.02;;;;;;;;;;6241680;28;20103;-59
2022/05/04 07:32:58;;;;;;;16.25;10.50;;;;;;;;;;6240171;28;20053;-59
2022/05/04 07:35:58;;;;;;;17.50;10.40;;;;;;;;;;6240109;28;20140;-59
2022/05/04 07:38:59;;;;;;;18.42;9.70;;;;;;;;;;6240874;28;20065;-58
2022/05/04 07:45:19;;;;;;;17.23;10.43;;;;;;;;;;6237937;28;20144;-58
2022/05/04 07:48:19;;;;;;;16.55;9.65;;;;;;;;;;6237777;28;20042;-59
2022/05/04 07:51:20;;;;;;;15.75;9.55;;;;;;;;;;6237993;28;20053;-64
2022/05/04 07:54:20;;;;;;;15.18;9.20;;;;;;;;;;6236429;28;20060;-59
2022/05/04 07:57:22;;;;;;;14.18;9.50;;;;;;;;;;6238593;28;20045;-59
2022/05/04 08:07:01;;;;;;;15.10;8.60;;;;;;;;;;6229756;28;20523;-59
2022/05/04 08:10:02;;;;;;;22.10;9.48;;;;;;;;;;6238859;28;20053;-58
2022/05/04 08:13:03;;;;;;;13.35;8.48;;;;;;;;;;6237834;28;20608;-58
2022/05/04 08:16:04;;;;;;;11.18;7.88;;;;;;;;;;6237713;28;20103;-59
2022/05/04 08:19:06;;;;;;;13.60;8.20;;;;;;;;;;6238525;28;20044;-59
2022/05/04 08:22:12;;;;;;;;;;;;;;;;;;6238639;28;20102;-58
2022/05/04 08:25:12;;;;;;;12.50;8.32;;;;;;;;;;6237018;28;20590;-58
2022/05/04 08:28:13;;;;;;;19.23;8.45;;;;;;;;;;6238020;28;20053;-59
2022/05/04 08:31:14;;;;;;;14.02;8.75;;;;;;;;;;6239341;28;20049;-58
2022/05/04 08:34:15;;;;;;;11.35;8.05;;;;;;;;;;6237525;28;20045;-62
2022/05/04 08:37:16;;;;;;;14.30;8.80;;;;;;;;;;6238082;28;20133;-59
2022/05/04 08:40:16;;;;;;;15.48;8.88;;;;;;;;;;6238793;28;20045;-59
2022/05/04 08:43:18;;;;;;;18.40;9.63;;;;;;;;;;6237909;28;20120;-59
2022/05/04 08:46:22;;;;;;;14.00;7.80;;;;;;;;;;6237489;28;20626;-59
2022/05/04 08:49:25;;;;;;;12.70;8.57;;;;;;;;;;6236784;28;20107;-59
2022/05/04 08:52:27;;;;;;;13.65;8.38;;;;;;;;;;6235337;28;20038;-60
2022/05/04 08:55:28;;;;;;;11.35;7.78;;;;;;;;;;6236406;28;20140;-61
2022/05/04 08:58:30;;;;;;;13.50;8.47;;;;;;;;;;6236674;28;20136;-58
2022/05/04 09:01:32;;;;;;;11.25;8.55;;;;;;;;;;6236226;28;20045;-59
2022/05/04 09:04:33;;;;;;;13.52;8.88;;;;;;;;;;6237097;28;20041;-58
2022/05/04 09:07:33;;;;;;;12.57;8.25;;;;;;;;;;6236885;28;20147;-59
2022/05/04 09:10:39;;;;;;;12.40;9.02;;;;;;;;;;6235162;28;20631;-59
2022/05/04 09:13:47;;;;;;;13.43;8.98;;;;;;;;;;6234248;28;20046;-59
2022/05/04 09:16:48;;;;;;;14.50;8.77;;;;;;;;;;6236201;28;20104;-62
2022/05/04 09:23:19;;;;;;;14.55;8.90;;;;;;;;;;6234001;28;20053;-59
2022/05/04 09:26:21;;;;;;;12.73;9.00;;;;;;;;;;6235838;28;20049;-59
2022/05/04 09:29:33;;;;;;;19.67;9.60;;;;;;;;;;6236512;28;20523;-61
2022/05/04 09:32:38;;;;;;;14.52;9.35;;;;;;;;;;6234429;28;20060;-60
2022/05/04 09:35:42;;;;;;;17.92;10.13;;;;;;;;;;6235943;28;20116;-60
2022/05/04 09:45:27;;;;;;;13.57;8.57;;;;;;;;;;6235590;28;20137;-60
2022/05/04 09:48:33;;;;;;;13.40;8.87;;;;;;;;;;6234016;28;20501;-64
2022/05/04 09:51:33;;;;;;;14.05;9.45;;;;;;;;;;6220096;28;20076;-61
2022/05/04 09:54:34;;;;;;;14.67;8.73;;;;;;;;;;6224716;28;20038;-60
2022/05/04 09:57:34;;;;;;;11.90;9.13;;;;;;;;;;6224939;28;20050;-59
2022/05/04 10:00:36;;;;;;;14.97;9.30;;;;;;;;;;6221711;28;20106;-63
2022/05/04 10:03:37;;;;;;;12.23;8.52;;;;;;;;;;6226337;28;20562;-60
2022/05/04 10:06:39;;;;;;;13.48;9.55;;;;;;;;;;6224603;28;20050;-63
2022/05/04 10:09:39;;;;;;;13.55;9.55;;;;;;;;;;6225234;28;20126;-65
2022/05/04 10:12:43;;;;;;;14.23;9.57;;;;;;;;;;6223074;28;20061;-61
2022/05/04 10:15:46;;;;;;;14.00;9.65;;;;;;;;;;6223230;28;20548;-63
2022/05/04 10:18:48;;;;;;;13.88;8.85;;;;;;;;;;6224201;28;20049;-61
2022/05/04 10:21:52;;;;;;;14.57;9.20;;;;;;;;;;6225908;28;20079;-61
2022/05/04 10:24:55;;;;;;;14.77;9.38;;;;;;;;;;6225599;28;20101;-62
2022/05/04 10:28:07;;;;;;;12.38;8.48;;;;;;;;;;6228606;28;20072;-61
2022/05/04 10:31:11;;;;;;;14.60;9.98;;;;;;;;;;6227828;28;20132;-65
2022/05/04 10:34:12;;;;;;;14.55;8.88;;;;;;;;;;6228207;28;20045;-61
2022/05/04 10:37:19;;;;;;;15.50;8.77;;;;;;;;;;6230803;28;20459;-61
2022/05/04 10:40:30;;;;;;;13.48;8.63;;;;;;;;;;6227463;28;20540;-61
2022/05/04 10:43:36;;;;;;;17.00;9.68;;;;;;;;;;6229770;28;21047;-65
2022/05/04 10:46:39;;;;;;;11.57;9.02;;;;;;;;;;6228453;28;20133;-61
2022/05/04 10:49:39;;;;;;;15.40;9.73;;;;;;;;;;6226932;28;20069;-59
2022/05/04 10:52:47;;;;;;;15.68;8.88;;;;;;;;;;6229414;28;20432;-65
2022/05/04 10:56:03;;;;;;;15.13;9.27;;;;;;;;;;6227687;28;20084;-65
2022/05/04 10:59:03;;;;;;;14.02;8.88;;;;;;;;;;6225663;28;20057;-59
2022/05/04 11:02:11;;;;;;;13.02;8.88;;;;;;;;;;6229276;28;20061;-63
2022/05/04 11:05:13;;;;;;;13.75;9.10;;;;;;;;;;6230714;28;20045;-61
2022/05/04 11:08:25;;;;;;;15.13;8.88;;;;;;;;;;6229122;28;20081;-63
2022/05/04 11:11:26;;;;;;;11.30;8.48;;;;;;;;;;6229107;28;20580;-59
2022/05/04 11:14:27;;;;;;;;;;;;;;;;;;6230134;28;20085;-60
2022/05/04 11:17:33;;;;;;;15.80;9.27;;;;;;;;;;6229612;28;19931;-62
2022/05/04 11:20:35;;;;;;;15.45;10.00;;;;;;;;;;6226630;28;20486;-62
2022/05/04 11:23:38;;;;;;;13.43;8.70;;;;;;;;;;6222595;28;20627;-65
2022/05/04 11:26:44;;;;;;;14.40;8.32;;;;;;;;;;6220536;28;20073;-59
2022/05/04 11:29:44;;;;;;;11.45;7.82;;;;;;;;;;6221085;28;20056;-64
2022/05/04 11:32:50;;;;;;;14.63;8.30;;;;;;;;;;6222133;28;20105;-60
2022/05/04 11:35:53;;;;;;;13.60;8.60;;;;;;;;;;6217921;28;20053;-60
2022/05/04 11:38:54;;;;;;;17.27;8.98;;;;;;;;;;6218185;28;20123;-64
2022/05/04 11:41:57;;;;;;;13.63;7.97;;;;;;;;;;6220354;28;20668;-61
2022/05/04 11:44:58;;;;;;;16.80;8.57;;;;;;;;;;6221359;28;20053;-62
2022/05/04 11:48:01;;;;;;;13.93;7.85;;;;;;;;;;6223525;28;20110;-62
2022/05/04 11:51:02;;;;;;;13.10;7.80;;;;;;;;;;6219963;28;20172;-60
2022/05/04 11:54:04;;;;;;;15.70;7.70;;;;;;;;;;6222211;28;20057;-62
2022/05/04 11:57:12;;;;;;;13.38;7.80;;;;;;;;;;6223486;28;20172;-61
2022/05/04 12:00:16;;;;;;;12.75;7.43;;;;;;;;;;6220922;28;20347;-66
2022/05/04 12:03:17;;;;;;;13.82;7.70;;;;;;;;;;6218324;28;20080;-62
2022/05/04 12:06:19;;;;;;;13.93;8.18;;;;;;;;;;6223481;28;20540;-64
2022/05/04 12:09:20;;;;;;;12.52;7.63;;;;;;;;;;6221086;28;20069;-58
2022/05/04 12:12:20;;;;;;;14.63;7.68;;;;;;;;;;6223561;28;20862;-64
2022/05/04 12:15:23;;;;;;;14.85;8.68;;;;;;;;;;6220516;28;20057;-64
2022/05/04 12:18:29;;;;;;;13.65;7.63;;;;;;;;;;6221675;28;20085;-63
2022/05/04 12:21:29;;;;;;;14.30;7.80;;;;;;;;;;6224929;28;21635;-65
2022/05/04 12:24:30;;;;;;;11.00;7.03;;;;;;;;;;6227041;28;20046;-65
2022/05/04 12:27:34;;;;;;;12.25;6.60;;;;;;;;;;6220995;28;20049;-61
2022/05/04 12:34:04;;;;;;;14.02;7.55;;;;;;;;;;6221513;28;21326;-60
2022/05/04 12:37:05;;;;;;;11.18;7.75;;;;;;;;;;6210910;28;20045;-64
2022/05/04 12:40:06;;;;;;;10.57;7.77;;;;;;;;;;6218393;28;20489;-59
2022/05/04 12:43:07;;;;;;;16.48;7.43;;;;;;;;;;6222176;28;20045;-60
2022/05/04 12:46:09;;;;;;;10.85;7.63;;;;;;;;;;6220580;28;20134;-59
2022/05/04 12:49:12;;;;;;;12.25;8.32;;;;;;;;;;6219468;28;20046;-62
2022/05/04 12:52:13;;;;;;;11.57;8.05;;;;;;;;;;6222376;28;20144;-62
2022/05/04 12:55:15;;;;;;;11.93;8.17;;;;;;;;;;6221718;28;20045;-63
2022/05/04 12:58:16;;;;;;;;;;;;;;;;;;6222872;28;20080;-60
2022/05/04 13:01:21;;;;;;;18.83;8.70;;;;;;;;;;6222644;28;19920;-64
2022/05/04 13:04:22;;;;;;;13.20;8.32;;;;;;;;;;6223238;28;20571;-63
2022/05/04 13:07:22;;;;;;;18.23;9.52;;;;;;;;;;6218550;28;20060;-60
2022/05/04 13:10:23;;;;;;;12.90;8.90;;;;;;;;;;6217549;28;20057;-64
2022/05/04 13:13:25;;;;;;;14.40;9.40;;;;;;;;;;6224222;28;20060;-63
2022/05/04 13:16:26;;;;;;;12.80;9.32;;;;;;;;;;6221633;28;20104;-62
2022/05/04 13:19:28;;;;;;;14.60;9.23;;;;;;;;;;6218640;28;20049;-60
2022/05/04 13:22:30;;;;;;;13.20;8.63;;;;;;;;;;6223263;28;20152;-64
2022/05/04 13:25:30;;;;;;;14.25;9.20;;;;;;;;;;6226350;28;20092;-62
2022/05/04 13:28:31;;;;;;;14.52;10.18;;;;;;;;;;6220900;28;20880;-66
2022/05/04 13:31:32;;;;;;;12.50;9.23;;;;;;;;;;6224234;28;20053;-61
2022/05/04 13:34:33;;;;;;;21.87;10.80;;;;;;;;;;6223886;28;20516;-65
2022/05/04 13:37:33;;;;;;;13.33;9.50;;;;;;;;;;6225577;28;20066;-64
2022/05/04 13:40:34;;;;;;;15.98;10.02;;;;;;;;;;6224188;28;20048;-60
2022/05/04 13:43:35;;;;;;;18.83;9.80;;;;;;;;;;6226914;28;20041;-60
2022/05/04 13:46:36;;;;;;;13.80;10.27;;;;;;;;;;6227193;28;21720;-60
2022/05/04 13:49:39;;;;;;;14.32;9.75;;;;;;;;;;6224578;28;20049;-59
2022/05/04 13:55:58;;;;;;;27.05;17.92;;;;;;;;;;6226384;28;20141;-61
2022/05/04 13:58:59;;;;;;;27.63;13.87;;;;;;;;;;6220669;28;20532;-59
2022/05/04 14:01:59;;;;;;;14.97;10.90;;;;;;;;;;6226766;28;20046;-60
2022/05/04 14:05:00;;;;;;;15.40;10.10;;;;;;;;;;6226200;28;20473;-59
2022/05/04 14:08:01;;;;;;;18.47;10.27;;;;;;;;;;6227003;28;20049;-58
2022/05/04 14:11:02;;;;;;;14.87;9.73;;;;;;;;;;6223657;28;20056;-59
2022/05/04 14:17:22;;;;;;;16.65;10.20;;;;;;;;;;6225618;28;21004;-59
2022/05/04 14:20:22;;;;;;;16.87;10.10;;;;;;;;;;6220814;28;20060;-61
2022/05/04 14:23:23;;;;;;;14.87;10.03;;;;;;;;;;6225441;28;20161;-59
2022/05/04 14:26:24;;;;;;;17.30;10.52;;;;;;;;;;6225557;28;20046;-61
2022/05/04 14:29:24;;;;;;;27.20;13.57;;;;;;;;;;6221750;28;20159;-59
2022/05/04 14:32:25;;;;;;;32.55;14.50;;;;;;;;;;6223004;28;20136;-58
2022/05/04 14:35:26;;;;;;;14.93;9.93;;;;;;;;;;6224518;28;20497;-59
2022/05/04 14:38:27;;;;;;;13.70;9.65;;;;;;;;;;6223184;28;20496;-60
2022/05/04 14:41:27;;;;;;;14.88;8.20;;;;;;;;;;6224157;28;20144;-59
2022/05/04 14:44:28;;;;;;;13.82;8.43;;;;;;;;;;6223684;28;20119;-62
2022/05/04 14:47:29;;;;;;;15.02;8.15;;;;;;;;;;6225272;28;20053;-60
2022/05/04 14:50:31;;;;;;;22.30;10.00;;;;;;;;;;6222442;28;20073;-61
2022/05/04 14:53:31;;;;;;;21.77;10.40;;;;;;;;;;6227177;28;20059;-59
2022/05/04 14:56:32;;;;;;;13.38;8.88;;;;;;;;;;6225809;28;20053;-60
2022/05/04 14:59:33;;;;;;;16.60;9.13;;;;;;;;;;6223903;28;20485;-59
2022/05/04 15:02:33;;;;;;;14.57;9.50;;;;;;;;;;6225351;28;20037;-62
2022/05/04 15:05:34;;;;;;;14.10;9.25;;;;;;;;;;6223365;28;20050;-59
2022/05/04 15:08:35;;;;;;;17.07;10.07;;;;;;;;;;6222435;28;20434;-60
2022/05/04 15:11:36;;;;;;;12.60;9.25;;;;;;;;;;6226697;28;20056;-60
2022/05/04 15:14:36;;;;;;;12.38;9.02;;;;;;;;;;6222386;28;20077;-59
2022/05/04 15:17:37;;;;;;;13.37;8.40;;;;;;;;;;6229490;28;20136;-59
2022/05/04 15:20:38;;;;;;;13.20;9.50;;;;;;;;;;6226373;28;20044;-59
2022/05/04 15:23:39;;;;;;;13.70;9.33;;;;;;;;;;6229895;28;20060;-59
2022/05/04 15:26:39;;;;;;;16.02;9.82;;;;;;;;;;6229995;28;20049;-58
2022/05/04 15:29:41;;;;;;;15.57;9.47;;;;;;;;;;6226150;28;20091;-59
2022/05/04 15:32:41;;;;;;;16.23;10.57;;;;;;;;;;6224250;28;20136;-61
2022/05/04 15:35:43;;;;;;;16.53;9.70;;;;;;;;;;6226792;28;20099;-61
2022/05/04 15:38:44;;;;;;;17.17;10.50;;;;;;;;;;6226029;28;20128;-60
2022/05/04 15:41:44;;;;;;;18.67;12.33;;;;;;;;;;6224053;28;20456;-58
2022/05/04 15:44:45;;;;;;;15.80;10.60;;;;;;;;;;6224842;28;20046;-60
2022/05/04 15:47:45;;;;;;;29.87;22.70;;;;;;;;;;6227443;28;20064;-62
2022/05/04 15:50:46;;;;;;;19.17;12.60;;;;;;;;;;6223705;28;20524;-62
2022/05/04 15:53:48;;;;;;;21.20;15.67;;;;;;;;;;6224843;28;20057;-59
2022/05/04 15:56:51;;;;;;;25.20;14.57;;;;;;;;;;6226447;28;20046;-59
2022/05/04 15:59:52;;;;;;;17.60;11.45;;;;;;;;;;6224672;28;20119;-60
2022/05/04 16:06:12;;;;;;;17.30;10.90;;;;;;;;;;6227438;28;20041;-60
2022/05/04 16:09:13;;;;;;;15.87;11.20;;;;;;;;;;6226696;28;20137;-62
2022/05/04 16:12:13;;;;;;;27.17;18.47;;;;;;;;;;6227312;28;20140;-60
2022/05/04 16:15:14;;;;;;;16.00;10.83;;;;;;;;;;6227466;28;20076;-61
2022/05/04 16:21:42;;;;;;;61.67;35.95;;;;;;;;;;6227632;28;20195;-60
2022/05/04 16:24:42;;;;;;;50.15;30.08;;;;;;;;;;6226903;28;20088;-61
2022/05/04 16:27:43;;;;;;;16.40;11.33;;;;;;;;;;6227686;28;20394;-60
2022/05/04 16:30:44;;;;;;;15.33;9.87;;;;;;;;;;6223784;28;20053;-63
2022/05/04 16:33:44;;;;;;;17.57;11.13;;;;;;;;;;6227855;28;20056;-63
2022/05/04 16:36:45;;;;;;;15.93;10.23;;;;;;;;;;6225219;28;20671;-61
2022/05/04 16:39:46;;;;;;;17.70;9.93;;;;;;;;;;6224603;28;20045;-60
2022/05/04 16:42:46;;;;;;;17.00;10.73;;;;;;;;;;6225743;28;20106;-59
2022/05/04 16:45:47;;;;;;;23.30;13.77;;;;;;;;;;6227460;28;20056;-60
2022/05/04 16:48:48;;;;;;;33.20;18.87;;;;;;;;;;6222039;28;20053;-60
2022/05/04 16:51:49;;;;;;;28.20;16.27;;;;;;;;;;6223164;28;20049;-60
2022/05/04 16:54:49;;;;;;;23.37;13.77;;;;;;;;;;6224986;28;20042;-59
2022/05/04 16:57:50;;;;;;;28.20;16.67;;;;;;;;;;6225328;28;20045;-59
2022/05/04 17:00:51;;;;;;;22.47;13.60;;;;;;;;;;6224388;28;20572;-62
2022/05/04 17:03:52;;;;;;;20.10;11.33;;;;;;;;;;6227895;28;20045;-60
2022/05/04 17:06:53;;;;;;;16.13;11.37;;;;;;;;;;6224556;28;20058;-60
2022/05/04 17:09:53;;;;;;;21.60;15.20;;;;;;;;;;6224088;28;20476;-61
2022/05/04 17:12:54;;;;;;;29.63;18.10;;;;;;;;;;6227212;28;20603;-60
2022/05/04 17:15:55;;;;;;;33.67;20.77;;;;;;;;;;6226788;28;20663;-61
2022/05/04 17:18:55;;;;;;;36.10;19.73;;;;;;;;;;6224505;28;20314;-62
2022/05/04 17:21:56;;;;;;;35.80;21.43;;;;;;;;;;6223917;28;20088;-61
2022/05/04 17:24:57;;;;;;;33.47;19.37;;;;;;;;;;6222462;28;20049;-61
2022/05/04 17:27:58;;;;;;;24.80;15.70;;;;;;;;;;6223984;28;20072;-60
2022/05/04 17:30:59;;;;;;;29.10;16.77;;;;;;;;;;6220453;28;20046;-63
2022/05/04 17:37:18;;;;;;;71.97;22.38;;;;;;;;;;6222060;28;20077;-62
2022/05/04 17:40:19;;;;;;;31.20;17.53;;;;;;;;;;6223681;28;20050;-62
2022/05/04 17:43:20;;;;;;;40.00;23.63;;;;;;;;;;6225043;28;20498;-62
2022/05/04 17:46:20;;;;;;;39.10;19.73;;;;;;;;;;6226750;28;20524;-62
2022/05/04 17:49:21;;;;;;;33.55;19.08;;;;;;;;;;6223572;28;20045;-62
2022/05/04 17:52:22;;;;;;;38.05;22.17;;;;;;;;;;6220677;28;20191;-63
2022/05/04 17:55:24;;;;;;;36.40;19.97;;;;;;;;;;6225180;28;20560;-64
2022/05/04 17:58:25;;;;;;;40.53;21.67;;;;;;;;;;6222463;28;20194;-63
2022/05/04 18:04:45;;;;;;;35.08;19.52;;;;;;;;;;6222900;28;20191;-61
2022/05/04 18:07:46;;;;;;;37.97;20.40;;;;;;;;;;6221187;28;20049;-60
2022/05/04 18:10:46;;;;;;;37.30;20.87;;;;;;;;;;6218934;28;20503;-62
2022/05/04 18:13:47;;;;;;;46.47;25.27;;;;;;;;;;6220325;28;20119;-64
2022/05/04 18:16:48;;;;;;;42.77;25.47;;;;;;;;;;6220318;28;20095;-62
2022/05/04 18:19:48;;;;;;;42.13;23.43;;;;;;;;;;6216317;28;20067;-64
2022/05/04 18:22:49;;;;;;;43.97;25.50;;;;;;;;;;6223801;28;20049;-62
2022/05/04 18:25:49;;;;;;;62.57;29.53;;;;;;;;;;6224648;28;20041;-66
2022/05/04 18:28:50;;;;;;;41.27;24.87;;;;;;;;;;6223779;28;20057;-62
2022/05/04 18:31:50;;;;;;;43.97;24.00;;;;;;;;;;6224655;28;20489;-61
2022/05/04 18:34:51;;;;;;;39.88;22.10;;;;;;;;;;6224916;28;20501;-63